Time;durP1;ratioP1;P1;durP2;ratioP2;P2;SDS_P1;SDS_P2;PMS_P1;PMS_P2;Temp;Humidity;BMP_temperature;BMP_pressure;BME280_temperature;BME280_humidity;BME280_pressure;Samples;Min_cycle;Max_cycle;Signal;HPM_P1;HPM_P2
2021/09/11 00:01:34;;;;;;;28.23;15.80;;;16.90;99.90;;;15.76;100.00;101918.91;5051281;28;20536;-74
2021/09/11 00:04:00;;;;;;;25.83;16.17;;;16.90;99.90;;;15.79;100.00;101937.34;5048370;28;20052;-74
2021/09/11 00:06:26;;;;;;;25.05;17.10;;;16.90;99.90;;;15.78;100.00;101966.63;5052414;28;20095;-74
2021/09/11 00:08:52;;;;;;;28.48;17.05;;;16.90;99.90;;;15.78;100.00;101967.47;5049271;28;20039;-74
2021/09/11 00:11:18;;;;;;;33.10;16.77;;;16.90;99.90;;;15.79;100.00;101958.59;5051087;28;20029;-74
2021/09/11 00:13:44;;;;;;;28.02;18.60;;;17.00;99.90;;;15.84;100.00;101994.69;5048507;28;20036;-74
2021/09/11 00:16:10;;;;;;;29.65;17.63;;;17.00;99.90;;;15.82;100.00;102001.88;5034071;28;20096;-73
2021/09/11 00:18:36;;;;;;;34.80;19.98;;;17.00;99.90;;;15.84;100.00;102046.00;5050279;28;20523;-73
2021/09/11 00:21:02;;;;;;;30.92;19.30;;;17.00;99.90;;;15.85;100.00;102102.63;5049832;28;20036;-74
2021/09/11 00:23:28;;;;;;;31.88;18.75;;;17.80;99.90;;;15.81;100.00;102103.72;5049197;28;20056;-74
2021/09/11 00:25:56;;;;;;;29.88;18.65;;;16.90;99.90;;;15.77;100.00;102092.38;5048887;28;20489;-74
2021/09/11 00:28:22;;;;;;;34.22;21.17;;;16.90;99.90;;;15.80;100.00;102116.13;5067382;28;20029;-74
2021/09/11 00:30:48;;;;;;;34.47;21.58;;;16.90;99.90;;;15.78;100.00;102142.75;5051029;28;20033;-74
2021/09/11 00:33:14;;;;;;;36.15;21.40;;;16.90;99.90;;;15.76;100.00;102172.97;5031404;28;20467;-74
2021/09/11 00:35:40;;;;;;;39.25;21.80;;;16.90;99.90;;;15.73;100.00;102213.81;5051161;28;20033;-74
2021/09/11 00:38:06;;;;;;;33.20;21.50;;;16.90;99.90;;;15.69;100.00;102248.50;5048549;28;20021;-74
2021/09/11 00:40:32;;;;;;;45.92;22.83;;;16.80;99.90;;;15.66;100.00;102220.31;5050813;28;20078;-74
2021/09/11 00:42:58;;;;;;;31.30;19.95;;;16.90;99.90;;;15.67;100.00;102215.84;5024996;28;20098;-74
2021/09/11 00:45:24;;;;;;;33.40;21.63;;;16.80;99.90;;;15.60;100.00;102263.06;5040944;28;20025;-74
2021/09/11 00:47:51;;;;;;;32.30;20.58;;;16.80;99.90;;;15.63;100.00;102275.31;5049816;28;20572;-74
2021/09/11 00:50:19;;;;;;;34.13;20.05;;;16.80;99.90;;;15.67;100.00;102320.25;5039855;28;20103;-74
2021/09/11 00:52:46;;;;;;;37.80;19.70;;;16.90;99.90;;;15.63;100.00;102305.38;5049262;28;20036;-74
2021/09/11 00:55:15;;;;;;;31.48;18.45;;;16.80;99.90;;;15.65;100.00;102310.66;5031115;28;20030;-74
2021/09/11 00:57:45;;;;;;;25.70;16.38;;;16.80;99.90;;;15.62;100.00;102351.47;5033473;28;20044;-74
2021/09/11 01:00:13;;;;;;;25.58;16.75;;;16.80;99.90;;;15.62;100.00;102348.81;5032590;28;20070;-74
2021/09/11 01:02:40;;;;;;;23.05;16.10;;;16.80;99.90;;;15.60;100.00;102406.44;5048826;28;20041;-74
2021/09/11 01:05:09;;;;;;;24.95;15.13;;;16.80;99.90;;;15.63;100.00;102377.09;5048308;28;20025;-74
2021/09/11 01:07:39;;;;;;;26.30;18.17;;;16.80;99.90;;;15.64;100.00;102134.53;5049892;28;20111;-74
2021/09/11 01:10:07;;;;;;;34.50;19.83;;;16.80;99.90;;;15.68;100.00;102197.19;5065548;28;20158;-74
2021/09/11 01:12:34;;;;;;;33.80;20.02;;;16.90;99.90;;;15.73;100.00;102261.63;5049493;28;20036;-74
2021/09/11 01:15:09;;;;;;;32.45;19.75;;;16.90;99.90;;;15.75;100.00;102274.84;5048115;28;20073;-74
2021/09/11 01:17:38;;;;;;;35.58;19.83;;;16.90;99.90;;;15.76;100.00;102334.97;5050257;28;20025;-74
2021/09/11 01:20:05;;;;;;;32.15;19.45;;;16.90;99.90;;;15.76;100.00;102388.94;5030889;28;20031;-74
2021/09/11 01:22:31;;;;;;;30.85;19.02;;;16.90;99.90;;;15.75;100.00;102423.56;5050292;28;20024;-74
2021/09/11 01:25:08;;;;;;;39.10;19.60;;;16.90;99.90;;;15.74;100.00;102467.84;5037739;28;20416;-74
2021/09/11 01:27:34;;;;;;;30.45;19.75;;;16.90;99.90;;;15.77;100.00;102504.88;5040203;28;20487;-74
2021/09/11 01:30:10;;;;;;;37.10;19.50;;;16.90;99.90;;;15.72;100.00;102541.41;5036122;28;20032;-74
2021/09/11 01:32:37;;;;;;;27.98;17.35;;;16.80;99.90;;;15.64;100.00;102554.06;5033496;28;20036;-74
2021/09/11 01:35:05;;;;;;;26.73;16.98;;;16.80;99.90;;;15.54;100.00;102576.59;5052324;28;20025;-74
2021/09/11 01:37:31;;;;;;;28.80;16.75;;;16.70;99.90;;;15.46;100.00;102597.25;5059144;28;20028;-74
2021/09/11 01:39:57;;;;;;;27.02;17.13;;;16.70;99.90;;;15.41;100.00;102639.03;5039115;28;20566;-74
2021/09/11 01:42:26;;;;;;;26.30;17.15;;;16.60;99.90;;;15.29;100.00;102648.28;5032781;28;20461;-74
2021/09/11 01:44:57;;;;;;;27.95;17.65;;;16.40;99.90;;;15.12;100.00;102678.09;5038965;28;20026;-74
2021/09/11 01:47:24;;;;;;;28.95;18.25;;;16.30;99.90;;;15.04;100.00;102739.38;5048802;28;20169;-74
2021/09/11 01:49:51;;;;;;;28.45;18.52;;;16.20;99.90;;;15.07;100.00;102725.13;5039231;28;20032;-74
2021/09/11 01:52:17;;;;;;;38.95;22.25;;;16.30;99.90;;;15.11;100.00;102729.41;5039942;28;20025;-74
2021/09/11 01:54:44;;;;;;;38.15;21.08;;;16.40;99.90;;;15.19;100.00;102788.41;5030872;28;20166;-74
2021/09/11 01:57:11;;;;;;;37.85;24.08;;;16.40;99.90;;;15.23;100.00;102808.63;5051968;28;20116;-74
2021/09/11 01:59:39;;;;;;;43.58;24.05;;;16.40;99.90;;;15.23;100.00;102816.59;5047316;28;20033;-74
2021/09/11 02:02:08;;;;;;;40.78;24.77;;;16.40;99.90;;;15.32;100.00;102820.72;5056147;28;20021;-74
2021/09/11 02:04:36;;;;;;;44.95;26.30;;;16.50;99.90;;;15.34;100.00;102773.75;5054049;28;20029;-74
2021/09/11 02:07:04;;;;;;;41.47;26.40;;;16.50;99.90;;;15.42;100.00;102823.91;5048462;28;20017;-74
2021/09/11 02:09:32;;;;;;;45.13;25.60;;;16.50;99.90;;;15.40;100.00;102821.34;5031045;28;20430;-73
2021/09/11 02:11:59;;;;;;;42.92;25.30;;;16.50;99.90;;;15.40;100.00;102762.94;5060809;28;20427;-74
2021/09/11 02:14:25;;;;;;;46.55;26.90;;;16.60;99.90;;;15.45;100.00;102790.19;5035041;28;20040;-74
2021/09/11 02:16:52;;;;;;;44.67;26.10;;;16.60;99.90;;;15.43;100.00;102777.88;5044940;28;20107;-74
2021/09/11 02:19:18;;;;;;;49.65;26.02;;;16.60;99.90;;;15.39;100.00;102809.81;5050371;28;20575;-74
2021/09/11 02:21:44;;;;;;;44.78;25.73;;;16.50;99.90;;;15.34;100.00;103037.41;5051716;28;20055;-74
2021/09/11 02:24:11;;;;;;;42.50;24.63;;;16.50;99.90;;;15.29;100.00;102813.72;5052984;28;20408;-74
2021/09/11 02:26:37;;;;;;;41.25;24.75;;;16.40;99.90;;;15.23;100.00;102771.47;5068845;28;20028;-74
2021/09/11 02:29:04;;;;;;;47.05;26.15;;;16.40;99.90;;;15.20;100.00;102763.59;5053259;28;20024;-74
2021/09/11 02:31:31;;;;;;;47.92;29.92;;;16.40;99.90;;;15.42;100.00;102858.41;5042126;28;20025;-74
2021/09/11 02:33:58;;;;;;;45.13;26.50;;;16.50;99.90;;;15.17;100.00;102799.06;5063832;28;20483;-74
2021/09/11 02:36:24;;;;;;;48.88;28.90;;;16.40;99.90;;;15.20;100.00;102867.09;5053910;28;20032;-74
2021/09/11 02:38:50;;;;;;;58.65;31.85;;;16.40;99.90;;;15.28;100.00;102859.75;5053218;28;20021;-74
2021/09/11 02:41:16;;;;;;;60.00;32.70;;;16.50;99.90;;;15.47;100.00;102870.63;5050286;28;20048;-74
2021/09/11 02:43:42;;;;;;;62.20;34.63;;;16.70;99.90;;;15.59;100.00;102909.19;5044127;28;20028;-74
2021/09/11 02:46:08;;;;;;;60.03;33.22;;;16.70;99.90;;;15.59;100.00;102872.00;5051224;28;20029;-74
2021/09/11 02:48:34;;;;;;;55.58;30.77;;;16.70;99.90;;;15.53;100.00;102902.31;5049075;28;20040;-74
2021/09/11 02:51:01;;;;;;;54.63;30.75;;;16.60;99.90;;;15.48;100.00;102983.00;5051309;28;20162;-74
2021/09/11 02:53:27;;;;;;;57.38;31.98;;;16.70;99.90;;;15.54;100.00;102966.88;5051236;28;20045;-74
2021/09/11 02:55:53;;;;;;;64.60;35.47;;;16.70;99.90;;;15.54;100.00;102866.00;5052333;28;20021;-74
2021/09/11 02:58:23;;;;;;;58.33;33.40;;;16.60;99.90;;;15.55;100.00;102939.41;5041566;28;20017;-74
2021/09/11 03:00:51;;;;;;;54.33;31.83;;;16.60;99.90;;;15.49;100.00;103405.13;5036364;28;20206;-74
2021/09/11 03:03:17;;;;;;;57.17;31.40;;;16.60;99.90;;;15.44;100.00;102875.16;5034611;28;20035;-74
2021/09/11 03:05:43;;;;;;;48.72;27.80;;;16.60;99.90;;;15.37;100.00;102843.50;5052275;28;20032;-74
2021/09/11 03:08:09;;;;;;;45.70;27.30;;;16.50;99.90;;;15.31;100.00;102957.88;5051063;28;20075;-74
2021/09/11 03:10:35;;;;;;;41.88;25.85;;;16.40;99.90;;;15.32;100.00;102999.41;5051422;28;20020;-74
2021/09/11 03:13:01;;;;;;;42.80;25.50;;;16.40;99.90;;;15.31;100.00;103052.53;5033738;28;20044;-74
2021/09/11 03:15:28;;;;;;;42.92;25.33;;;16.40;99.90;;;15.29;100.00;103089.75;5069475;28;20036;-74
2021/09/11 03:17:54;;;;;;;47.83;26.45;;;16.40;99.90;;;15.25;100.00;103029.72;5049516;28;20392;-74
2021/09/11 03:20:20;;;;;;;48.25;26.42;;;16.40;99.90;;;15.26;100.00;103083.66;5044867;28;20017;-74
2021/09/11 03:22:46;;;;;;;41.90;25.45;;;16.30;99.90;;;15.20;100.00;103113.88;5032928;28;20032;-74
2021/09/11 03:25:13;;;;;;;38.17;25.00;;;16.30;99.90;;;15.16;100.00;103115.78;5051471;28;20384;-74
2021/09/11 03:27:39;;;;;;;43.03;26.35;;;16.30;99.90;;;15.17;100.00;102897.25;5072821;28;20094;-74
2021/09/11 03:30:07;;;;;;;51.88;29.25;;;16.30;99.90;;;15.25;100.00;102996.97;5060735;28;20488;-74
2021/09/11 03:32:34;;;;;;;49.72;29.48;;;16.40;99.90;;;15.28;100.00;103037.56;5050310;28;20039;-74
2021/09/11 03:35:00;;;;;;;62.22;32.03;;;16.40;99.90;;;15.31;100.00;103098.56;5052550;28;20017;-74
2021/09/11 03:37:26;;;;;;;55.25;32.55;;;16.40;99.90;;;15.31;100.00;103087.03;5039110;28;20436;-74
2021/09/11 03:39:52;;;;;;;49.85;30.13;;;16.40;99.90;;;15.28;100.00;103016.34;5033354;28;20139;-74
2021/09/11 03:42:18;;;;;;;50.70;28.25;;;16.40;99.90;;;15.22;100.00;103051.03;5051992;28;20542;-74
2021/09/11 03:44:44;;;;;;;48.70;27.13;;;16.30;99.90;;;15.15;100.00;103118.47;5049511;28;20155;-74
2021/09/11 03:47:10;;;;;;;45.67;25.52;;;16.30;99.90;;;15.08;100.00;103181.44;5051483;28;20357;-75
2021/09/11 03:49:36;;;;;;;41.15;23.75;;;16.20;99.90;;;14.98;100.00;103215.28;5067365;28;20480;-74
2021/09/11 03:52:02;;;;;;;42.15;25.38;;;16.20;99.90;;;14.95;100.00;103122.53;5051227;28;20165;-74
2021/09/11 03:54:28;;;;;;;40.55;25.77;;;16.10;99.90;;;14.98;100.00;103164.03;5039291;28;20424;-74
2021/09/11 03:56:54;;;;;;;46.75;25.23;;;16.10;99.90;;;14.89;100.00;103201.41;5042577;28;20033;-74
2021/09/11 03:59:20;;;;;;;40.22;25.80;;;16.10;99.90;;;14.84;100.00;103241.31;5042102;28;20203;-75
2021/09/11 04:01:46;;;;;;;45.55;27.40;;;16.10;99.90;;;14.87;100.00;103160.78;5050137;28;20035;-74
2021/09/11 04:04:12;;;;;;;48.70;27.67;;;16.10;99.90;;;14.89;100.00;103244.72;5051909;28;20503;-74
2021/09/11 04:06:37;;;;;;;55.80;30.25;;;16.10;99.90;;;14.98;100.00;103296.69;5035567;28;20075;-74
2021/09/11 04:09:03;;;;;;;52.47;29.83;;;16.10;99.90;;;14.98;100.00;103384.22;5047111;28;20111;-74
2021/09/11 04:11:29;;;;;;;54.90;30.92;;;16.10;99.90;;;14.97;100.00;103378.06;5051956;28;20381;-74
2021/09/11 04:13:55;;;;;;;53.30;29.73;;;16.10;99.90;;;14.91;100.00;103433.91;5049279;28;20036;-75
2021/09/11 04:16:21;;;;;;;46.60;28.50;;;16.10;99.90;;;14.90;100.00;103387.06;5050498;28;20027;-74
2021/09/11 04:18:47;;;;;;;42.67;26.15;;;16.00;99.90;;;14.73;100.00;103344.16;5049679;28;20102;-74
2021/09/11 04:21:13;;;;;;;49.47;25.38;;;15.90;99.90;;;14.70;100.00;103376.88;5050477;28;20246;-74
2021/09/11 04:23:39;;;;;;;39.70;24.33;;;15.90;99.90;;;14.74;100.00;103404.22;5049340;28;20036;-74
2021/09/11 04:26:05;;;;;;;38.05;23.83;;;16.00;99.90;;;14.78;100.00;103411.22;5052247;28;20040;-74
2021/09/11 04:28:31;;;;;;;39.90;24.10;;;16.00;99.90;;;14.83;100.00;103263.44;5055464;28;20040;-75
2021/09/11 04:30:57;;;;;;;44.90;26.58;;;16.10;99.90;;;14.88;100.00;103366.78;5040168;28;20450;-74
2021/09/11 04:33:23;;;;;;;42.13;25.20;;;16.10;99.90;;;14.96;100.00;103409.91;5043612;28;20492;-74
2021/09/11 04:35:49;;;;;;;57.67;27.98;;;16.20;99.90;;;15.07;100.00;103470.72;5048654;28;20051;-75
2021/09/11 04:38:15;;;;;;;57.05;30.83;;;16.30;99.90;;;15.21;100.00;103532.34;5050225;28;20025;-74
2021/09/11 04:40:41;;;;;;;53.05;30.45;;;16.40;99.90;;;15.37;100.00;103572.69;5049400;28;20039;-74
2021/09/11 04:43:08;;;;;;;58.13;32.22;;;16.60;99.90;;;15.54;100.00;103659.97;5049433;28;20025;-75
2021/09/11 04:45:35;;;;;;;62.90;33.10;;;16.80;99.90;;;15.71;100.00;103513.50;5024474;28;20040;-75
2021/09/11 04:48:01;;;;;;;54.20;32.45;;;16.90;99.90;;;15.88;100.00;103595.50;5040380;28;20564;-75
2021/09/11 04:50:27;;;;;;;60.05;33.00;;;17.10;99.90;;;16.07;100.00;103659.69;5046599;28;20029;-75
2021/09/11 04:52:54;;;;;;;53.65;32.63;;;17.30;99.90;;;16.22;100.00;103993.47;5048899;28;20063;-75
2021/09/11 04:55:20;;;;;;;50.53;32.17;;;17.40;99.90;;;16.31;100.00;103650.31;5033045;28;20037;-74
2021/09/11 04:57:46;;;;;;;60.38;31.75;;;17.60;99.90;;;16.48;100.00;103688.00;5048173;28;20025;-75
2021/09/11 05:00:13;;;;;;;54.75;33.05;;;17.70;99.90;;;16.64;100.00;103756.78;5048809;28;20029;-75
2021/09/11 05:02:39;;;;;;;49.50;30.67;;;17.90;99.90;;;16.83;100.00;103847.72;5049187;28;20047;-74
2021/09/11 05:05:06;;;;;;;58.10;33.47;;;18.10;99.90;;;17.01;100.00;103712.38;5040202;28;20661;-75
2021/09/11 05:07:33;;;;;;;51.88;33.35;;;18.20;99.90;;;17.22;100.00;103753.53;5050470;28;20033;-75
2021/09/11 05:09:59;;;;;;;55.33;32.63;;;18.40;99.90;;;17.37;100.00;103672.34;5061252;28;20027;-75
2021/09/11 05:12:25;;;;;;;53.70;31.90;;;;;;;17.56;100.00;103805.91;5033527;28;20025;-75
2021/09/11 05:14:51;;;;;;;52.53;30.17;;;18.80;99.90;;;17.71;100.00;103795.72;5050984;28;20385;-75
2021/09/11 05:17:17;;;;;;;46.75;28.48;;;18.90;99.90;;;17.87;100.00;103869.03;5040190;28;20035;-76
2021/09/11 05:19:43;;;;;;;44.13;27.80;;;19.10;99.90;;;18.02;100.00;103982.41;5050854;28;20384;-76
2021/09/11 05:22:09;;;;;;;39.47;24.88;;;19.20;99.90;;;18.20;100.00;103738.31;5049831;28;20039;-76
2021/09/11 05:24:35;;;;;;;42.10;25.58;;;19.40;99.90;;;18.34;100.00;103698.75;5048330;28;20053;-76
2021/09/11 05:27:01;;;;;;;46.50;24.75;;;19.50;99.90;;;18.40;100.00;103617.63;5057484;28;20392;-76
2021/09/11 05:29:27;;;;;;;38.60;22.38;;;19.60;99.90;;;18.43;100.00;103629.09;5048207;28;20033;-76
2021/09/11 05:31:54;;;;;;;36.85;22.60;;;19.60;99.90;;;18.40;100.00;103503.81;5024725;28;20033;-77
2021/09/11 05:34:19;;;;;;;33.60;20.60;;;19.50;99.90;;;18.27;100.00;103464.28;4980904;28;20090;-77
2021/09/11 05:36:47;;;;;;;34.97;19.63;;;19.50;99.90;;;18.18;100.00;103436.16;5047471;28;20032;-77
2021/09/11 05:41:48;;;;;;;33.87;19.87;;;19.10;99.90;;;17.71;100.00;103370.25;5039341;23;20052;-78
2021/09/11 05:44:14;;;;;;;33.47;19.88;;;18.90;99.90;;;17.63;100.00;103506.38;5008405;28;20275;-79
2021/09/11 05:46:43;;;;;;;32.08;18.70;;;18.80;99.90;;;17.51;100.00;103388.69;5002690;28;20033;-79
2021/09/11 05:49:09;;;;;;;30.33;18.00;;;18.80;99.90;;;17.52;100.00;103386.00;5017779;28;20311;-79
2021/09/11 05:51:35;;;;;;;28.83;17.80;;;18.80;99.90;;;17.56;100.00;103384.09;5012689;28;20046;-79
2021/09/11 05:54:01;;;;;;;26.95;17.38;;;18.80;99.90;;;17.53;100.00;103377.06;5005065;28;20088;-79
2021/09/11 05:56:27;;;;;;;32.13;17.85;;;18.80;99.90;;;17.56;100.00;103376.97;4998705;28;20032;-79
2021/09/11 05:58:53;;;;;;;29.35;18.02;;;18.80;99.90;;;17.61;100.00;103393.66;5013329;28;22166;-79
2021/09/11 06:01:19;;;;;;;26.98;17.17;;;18.80;99.90;;;17.52;100.00;103339.84;5015924;28;20113;-79
2021/09/11 06:03:45;;;;;;;27.02;16.95;;;18.70;99.90;;;17.40;100.00;103317.16;5023099;28;20380;-79
2021/09/11 06:06:13;;;;;;;32.22;17.95;;;18.60;99.90;;;17.36;100.00;103315.50;4992272;28;20470;-79
2021/09/11 06:08:39;;;;;;;27.48;17.25;;;18.60;99.90;;;17.37;100.00;103326.13;4973000;28;20400;-79
2021/09/11 06:11:05;;;;;;;32.33;18.65;;;18.50;99.90;;;17.36;100.00;103324.34;5011761;28;20534;-79
2021/09/11 06:13:31;;;;;;;32.63;17.17;;;18.50;99.90;;;17.38;100.00;103343.81;5018217;28;20571;-79
2021/09/11 06:15:57;;;;;;;31.80;17.65;;;18.60;99.90;;;17.37;100.00;103339.44;4992893;28;20033;-79
2021/09/11 06:18:23;;;;;;;26.50;16.58;;;18.60;99.90;;;17.32;100.00;103352.03;5014059;28;20161;-79
2021/09/11 06:20:49;;;;;;;31.80;18.52;;;18.50;99.90;;;17.36;100.00;103395.41;5017925;28;20048;-79
2021/09/11 06:23:15;;;;;;;33.78;18.08;;;18.50;99.90;;;17.35;100.00;103380.34;5002910;28;20061;-79
2021/09/11 06:25:41;;;;;;;35.90;17.73;;;18.50;99.90;;;17.35;100.00;103399.88;4985223;28;20501;-79
2021/09/11 06:28:07;;;;;;;28.90;16.40;;;18.50;99.90;;;17.34;100.00;103422.09;4983858;28;20026;-79
2021/09/11 06:30:33;;;;;;;36.28;17.67;;;18.50;99.90;;;17.35;100.00;103431.81;5020558;28;20025;-79
2021/09/11 06:32:59;;;;;;;29.50;17.08;;;18.60;99.90;;;17.45;100.00;103439.50;5018171;28;20045;-79
2021/09/11 06:35:25;;;;;;;34.25;18.23;;;18.70;99.90;;;17.54;100.00;103447.22;4991161;28;20134;-79
2021/09/11 06:37:53;;;;;;;30.02;17.40;;;18.70;99.90;;;17.66;100.00;103448.59;5012366;28;20390;-79
2021/09/11 06:40:20;;;;;;;30.10;17.50;;;18.80;99.90;;;17.62;100.00;103479.78;4971339;28;20041;-79
2021/09/11 06:42:47;;;;;;;33.70;17.23;;;18.80;99.90;;;17.69;100.00;103460.03;5050974;28;20040;-79
2021/09/11 06:45:13;;;;;;;30.23;17.10;;;18.80;99.90;;;17.69;100.00;103438.72;5025446;28;20452;-79
2021/09/11 06:47:39;;;;;;;28.77;16.00;;;18.90;99.90;;;17.76;100.00;103418.06;4992906;28;20524;-79
2021/09/11 06:50:06;;;;;;;30.27;16.23;;;19.00;99.90;;;17.81;100.00;103357.47;5017843;28;20121;-79
2021/09/11 06:52:39;;;;;;;30.45;16.02;;;19.00;99.90;;;17.83;100.00;103371.63;4983602;28;20036;-79
2021/09/11 06:55:06;;;;;;;29.60;15.45;;;19.00;99.90;;;17.90;100.00;103382.94;4986159;28;20045;-80
2021/09/11 06:57:32;;;;;;;26.00;15.55;;;19.10;99.90;;;17.93;100.00;103383.72;4996208;28;20032;-80
2021/09/11 07:00:00;;;;;;;27.42;15.75;;;19.20;99.90;;;17.98;100.00;103370.22;5004648;28;20040;-80
2021/09/11 07:02:26;;;;;;;33.58;15.32;;;19.20;99.90;;;18.10;100.00;103383.13;4977076;28;20045;-81
2021/09/11 07:04:52;;;;;;;28.05;14.93;;;19.30;99.90;;;18.06;100.00;103329.97;4993979;28;20029;-80
2021/09/11 07:07:18;;;;;;;28.48;14.70;;;19.20;99.90;;;18.04;100.00;103263.38;5012496;28;20040;-80
2021/09/11 07:09:44;;;;;;;21.92;14.25;;;19.30;99.90;;;18.15;100.00;103261.16;4978710;28;20029;-80
2021/09/11 07:12:10;;;;;;;24.45;13.98;;;19.30;99.90;;;18.13;100.00;103239.00;5002327;28;20033;-80
2021/09/11 07:14:36;;;;;;;28.67;14.57;;;19.30;99.90;;;18.19;100.00;103224.59;5006208;28;20029;-80
2021/09/11 07:17:03;;;;;;;23.58;14.10;;;;;;;18.30;100.00;103234.81;4976506;28;20040;-80
2021/09/11 07:19:29;;;;;;;24.80;14.43;;;19.40;99.90;;;18.20;100.00;103211.16;5017663;28;20155;-82
2021/09/11 07:21:56;;;;;;;23.98;14.77;;;19.50;99.90;;;18.37;100.00;103254.97;5008592;28;20026;-80
2021/09/11 07:24:23;;;;;;;23.23;13.55;;;19.50;99.90;;;18.36;100.00;103232.78;5017827;28;20109;-79
2021/09/11 07:26:49;;;;;;;24.65;13.70;;;19.60;99.90;;;18.43;100.00;103230.72;5019629;28;20021;-79
2021/09/11 07:29:15;;;;;;;23.08;13.82;;;19.60;99.90;;;18.46;100.00;103195.91;4986613;28;20050;-78
2021/09/11 07:31:41;;;;;;;21.60;12.93;;;;;;;18.58;100.00;103210.56;4941816;28;20121;-78
2021/09/11 07:34:10;;;;;;;20.98;12.70;;;19.90;99.90;;;18.80;100.00;103216.78;5005747;28;20044;-79
2021/09/11 07:36:36;;;;;;;23.00;13.38;;;20.10;99.90;;;19.03;100.00;103277.22;4996428;28;20044;-79
2021/09/11 07:39:03;;;;;;;18.98;11.73;;;20.50;99.90;;;19.73;100.00;103322.38;5018333;28;20378;-79
2021/09/11 07:41:29;;;;;;;19.15;11.48;;;20.90;99.90;;;19.99;100.00;103306.00;5000373;28;20034;-79
2021/09/11 07:43:56;;;;;;;19.00;11.07;;;21.00;99.90;;;19.95;99.21;103290.19;4979076;28;20045;-79
2021/09/11 07:46:22;;;;;;;18.52;11.35;;;21.00;99.90;;;19.82;99.85;103249.75;4977612;28;20028;-79
2021/09/11 07:48:48;;;;;;;18.98;11.23;;;20.90;99.90;;;19.57;100.00;103217.94;4977443;28;20025;-78
2021/09/11 07:51:14;;;;;;;20.77;11.60;;;20.90;99.90;;;19.67;100.00;103237.94;4996902;28;20029;-79
2021/09/11 07:53:42;;;;;;;19.80;12.10;;;20.80;99.90;;;19.81;100.00;103224.84;4978063;28;20047;-78
2021/09/11 07:56:10;;;;;;;20.40;11.88;;;21.00;99.90;;;20.16;100.00;103275.81;4986136;28;20038;-78
2021/09/11 07:58:36;;;;;;;22.17;12.07;;;21.30;99.90;;;20.51;97.71;103299.16;4968604;28;20317;-78
2021/09/11 08:01:02;;;;;;;18.83;11.32;;;21.50;99.90;;;20.53;95.86;103246.44;5000238;28;20091;-78
2021/09/11 08:03:29;;;;;;;17.90;11.27;;;21.40;99.90;;;20.66;94.55;103247.59;5022756;28;20038;-78
2021/09/11 08:06:07;;;;;;;17.42;10.85;;;21.50;99.90;;;20.59;95.36;103214.06;5009561;28;20038;-76
2021/09/11 08:08:41;;;;;;;16.00;10.45;;;21.60;99.90;;;20.55;94.10;103207.94;5008747;28;20103;-78
2021/09/11 08:11:07;;;;;;;14.40;9.73;;;21.70;99.90;;;20.63;95.72;103205.78;4999900;28;20100;-75
2021/09/11 08:13:34;;;;;;;15.25;9.75;;;21.80;99.90;;;20.61;94.32;103156.81;4986129;28;20046;-75
2021/09/11 08:16:00;;;;;;;14.85;9.57;;;21.40;99.90;;;20.46;94.19;103192.34;5034767;28;20025;-77
2021/09/11 08:18:26;;;;;;;14.98;9.75;;;21.20;99.90;;;20.39;95.36;103121.31;5018569;28;20330;-77
2021/09/11 08:20:55;;;;;;;14.27;9.95;;;21.30;99.90;;;20.38;94.72;103066.94;5004557;28;20096;-77
2021/09/11 08:23:21;;;;;;;15.35;9.32;;;21.20;99.90;;;20.43;94.44;103054.22;5033439;28;20089;-77
2021/09/11 08:25:47;;;;;;;13.70;9.40;;;21.00;99.90;;;20.22;94.99;103060.66;5001240;28;20047;-77
2021/09/11 08:28:14;;;;;;;14.25;9.10;;;21.00;99.90;;;20.27;94.81;103085.38;4994026;28;20033;-77
2021/09/11 08:30:41;;;;;;;15.25;9.20;;;20.90;99.90;;;20.06;96.63;103152.38;5018450;28;20040;-77
2021/09/11 08:33:11;;;;;;;15.32;8.38;;;20.90;99.90;;;20.00;96.88;103079.56;5016833;28;20104;-77
2021/09/11 08:35:37;;;;;;;13.45;8.65;;;20.70;99.90;;;19.90;96.41;103028.38;5001532;28;20037;-77
2021/09/11 08:38:03;;;;;;;11.57;8.13;;;20.60;99.90;;;19.80;97.22;103003.88;5000456;28;20022;-77
2021/09/11 08:40:29;;;;;;;12.98;8.30;;;20.70;99.90;;;19.88;98.63;103004.38;5011269;28;20034;-77
2021/09/11 08:42:55;;;;;;;11.85;8.13;;;20.70;99.90;;;19.91;99.14;102989.97;5027176;28;20433;-77
2021/09/11 08:45:21;;;;;;;11.98;8.60;;;20.70;99.90;;;19.90;98.64;102966.88;5017242;28;20036;-77
2021/09/11 08:47:53;;;;;;;14.93;8.10;;;20.70;99.90;;;19.95;98.92;102963.97;5018260;28;20030;-77
2021/09/11 08:50:21;;;;;;;12.70;9.20;;;20.70;99.90;;;19.93;99.16;102968.53;5016763;28;20028;-77
2021/09/11 08:52:51;;;;;;;12.95;7.95;;;20.80;99.90;;;19.91;98.77;102938.31;5020396;28;20036;-77
2021/09/11 08:55:19;;;;;;;16.13;7.80;;;20.70;99.90;;;19.88;97.53;102905.47;5024425;28;20480;-77
2021/09/11 08:58:01;;;;;;;12.10;7.65;;;20.80;99.90;;;19.99;96.58;102904.91;5007435;28;20037;-77
2021/09/11 09:00:53;;;;;;;12.73;7.70;;;20.90;99.90;;;20.19;97.72;102985.91;5002247;28;20044;-77
2021/09/11 09:03:46;;;;;;;10.00;7.40;;;21.00;99.90;;;20.13;97.24;102976.41;4948407;28;20048;-77
2021/09/11 09:06:39;;;;;;;12.82;7.68;;;21.00;99.90;;;20.35;94.88;102933.34;4983284;28;20571;-77
2021/09/11 09:09:22;;;;;;;11.68;7.43;;;21.30;99.90;;;20.82;95.23;102961.19;4994253;28;20026;-77
2021/09/11 09:12:14;;;;;;;12.57;6.90;;;21.60;99.90;;;20.84;93.24;102924.47;4959046;28;20410;-77
2021/09/11 09:15:24;;;;;;;9.27;6.60;;;21.50;99.90;;;20.55;92.96;102892.13;4944121;28;20073;-77
2021/09/11 09:18:16;;;;;;;11.02;7.03;;;21.30;99.90;;;20.46;93.23;102868.56;4957883;28;20025;-77
2021/09/11 09:25:05;;;;;;;10.85;6.57;;;21.30;99.90;;;20.39;92.73;102827.91;4969962;28;20030;-77
2021/09/11 09:28:47;;;;;;;10.90;7.15;;;21.10;99.90;;;20.28;93.37;102831.16;4968635;28;20375;-77
2021/09/11 09:32:06;;;;;;;10.82;7.40;;;21.10;99.90;;;20.54;95.68;103000.13;4968139;28;20045;-77
2021/09/11 09:35:29;;;;;;;10.02;7.38;;;21.60;99.90;;;21.09;92.78;102932.88;4990153;28;20038;-77
2021/09/11 09:38:46;;;;;;;9.90;7.50;;;21.90;99.90;;;21.28;93.50;102955.97;4965417;28;20045;-77
2021/09/11 09:42:19;;;;;;;11.30;7.57;;;22.10;99.90;;;21.21;93.41;103144.78;4977898;28;20524;-77
2021/09/11 09:45:35;;;;;;;10.82;7.70;;;22.10;99.90;;;20.84;91.12;104853.63;4965870;28;20042;-77
2021/09/11 09:48:57;;;;;;;12.52;8.50;;;22.10;99.90;;;21.16;91.90;102989.66;4960761;28;20060;-76
2021/09/11 09:51:42;;;;;;;11.68;8.07;;;22.30;99.90;;;21.10;89.37;102814.09;4966565;28;20453;-77
2021/09/11 09:54:28;;;;;;;11.10;7.80;;;22.20;99.90;;;21.00;90.22;102751.28;4996750;28;20033;-77
2021/09/11 09:57:40;;;;;;;11.10;7.50;;;22.10;99.90;;;20.98;90.11;103162.09;4963166;28;20033;-76
2021/09/11 10:01:18;;;;;;;13.75;8.05;;;22.00;99.90;;;21.15;93.31;102698.63;4977432;28;20425;-77
2021/09/11 10:05:15;;;;;;;11.38;7.38;;;22.10;99.90;;;21.23;89.58;103300.97;4963782;28;20191;-77
2021/09/11 10:08:44;;;;;;;11.35;7.95;;;22.30;99.90;;;21.39;90.36;103122.34;4967253;28;20501;-76
2021/09/11 10:12:48;;;;;;;12.50;7.97;;;22.50;99.90;;;21.69;87.05;103396.00;4966758;28;20065;-77
2021/09/11 10:16:09;;;;;;;10.45;7.10;;;22.80;99.90;;;22.05;85.92;102699.34;4955550;28;20499;-75
2021/09/11 10:19:48;;;;;;;10.30;7.60;;;23.20;99.90;;;22.55;85.98;102848.25;4958098;28;20136;-75
2021/09/11 10:23:31;;;;;;;9.15;6.72;;;23.30;99.90;;;22.20;83.95;102287.88;4964882;28;20064;-75